»·PEaware :: N7727P KPSP-KSEZ

N7727P :: KPSP-KSEZ

FLIGHT INFORMATION

Flight Status: Arrived
Operator: Privately registered:
United States
More flights under this callsign
Pilot: Kyle A. (14988)
Aircraft: PIPER PA-24 COMMANCHE
(PA24)
More flights by this aircraft type
Origin: KPSP Palm Springs Intl
United States
Destination: KSEZ Sedona
United States
More flights between these airports :: More routes between these airports
Route: +
File this flight plan on PilotEdge
Remarks:
Altitude:
(Current/Filed)
9,500ft
Speed:
(Current/Filed)
0kts
Departed: 02-Mar-18 06:50 PM
Arrived: 02-Mar-18 08:22 PM
Distance/Time
Traveled:
242nm/1:31
Distance/Time
To Go:
Arrived

Flight Plot

Page will automatically refresh every two minutes.

Flight plan parsing failed; only flown route is shown


Map Options




Map Legend


Flown Route
Filed Route
Departure Airport
Arrival Airport
Navaid (VOR, NDB)
Fix

Horizontal Profiles

Position Reports

Time Latitude Longitude Heading Altitude Ground
Speed
02-Mar-18 18:53 33.823889 -116.498056 53 480ft 0kts
02-Mar-18 18:54 33.823911 -116.498021 53 480ft 3kts
02-Mar-18 18:55 33.824630 -116.499576 226 480ft 0kts
02-Mar-18 18:56 33.824588 -116.499635 231 480ft 4kts
02-Mar-18 18:57 33.834424 -116.508565 328 935ft 87kts
02-Mar-18 18:58 33.857624 -116.506567 44 1988ft 108kts
02-Mar-18 18:59 33.873165 -116.470344 64 2904ft 127kts
02-Mar-18 19:00 33.880453 -116.427699 86 4087ft 136kts
02-Mar-18 19:01 33.886020 -116.382189 84 5239ft 140kts
02-Mar-18 19:02 33.892201 -116.334863 84 6189ft 148kts
02-Mar-18 19:03 33.899130 -116.284148 84 7165ft 163kts
02-Mar-18 19:04 33.906147 -116.229725 84 7924ft 167kts
02-Mar-18 19:05 33.913923 -116.174262 82 8455ft 169kts
02-Mar-18 19:06 33.920840 -116.118138 82 8984ft 169kts
02-Mar-18 19:07 33.928709 -116.062264 80 9385ft 171kts
02-Mar-18 19:08 33.935357 -116.004817 85 9500ft 180kts
02-Mar-18 19:09 33.944117 -115.945284 83 9501ft 179kts
02-Mar-18 19:10 33.951289 -115.886017 86 9507ft 177kts
02-Mar-18 19:11 33.958820 -115.827371 81 9518ft 178kts
02-Mar-18 19:12 33.967808 -115.768608 86 9518ft 177kts
02-Mar-18 19:13 33.971501 -115.719466 84 9516ft 177kts
02-Mar-18 19:14 33.982979 -115.651930 82 9524ft 176kts
02-Mar-18 19:15 33.988721 -115.593219 85 9521ft 176kts
02-Mar-18 19:16 33.995218 -115.544701 82 9521ft 176kts
02-Mar-18 19:17 34.004168 -115.476967 86 9519ft 175kts
02-Mar-18 19:18 34.009652 -115.428329 84 9518ft 175kts
02-Mar-18 19:19 34.018081 -115.370492 86 9516ft 175kts
02-Mar-18 19:20 34.024179 -115.312042 85 9499ft 175kts
02-Mar-18 19:21 34.034089 -115.244621 88 9496ft 173kts
02-Mar-18 19:22 34.038263 -115.196510 84 9497ft 173kts
02-Mar-18 19:23 34.046876 -115.139106 82 9497ft 173kts
02-Mar-18 19:24 34.052911 -115.081860 87 9494ft 172kts
02-Mar-18 19:25 34.060144 -115.024902 85 9496ft 172kts
02-Mar-18 19:26 34.067308 -114.967584 88 9496ft 172kts
02-Mar-18 19:27 34.074730 -114.911157 86 9496ft 168kts
02-Mar-18 19:28 34.080319 -114.854918 86 9497ft 169kts
02-Mar-18 19:30 34.094190 -114.741088 89 9497ft 172kts
02-Mar-18 19:31 34.102007 -114.683927 82 9498ft 172kts
02-Mar-18 19:32 34.115122 -114.628017 75 9496ft 174kts
02-Mar-18 19:33 34.132790 -114.573506 71 9486ft 175kts
02-Mar-18 19:34 34.149434 -114.518583 79 9484ft 172kts
02-Mar-18 19:35 34.162925 -114.463045 76 9484ft 172kts
02-Mar-18 19:36 34.179699 -114.408286 75 9484ft 173kts
02-Mar-18 19:37 34.194503 -114.353224 76 9479ft 172kts
02-Mar-18 19:38 34.209842 -114.298737 72 9481ft 173kts
02-Mar-18 19:39 34.225552 -114.244197 76 9500ft 171kts
02-Mar-18 19:40 34.240257 -114.189756 77 9499ft 169kts
02-Mar-18 19:41 34.255138 -114.136108 76 9506ft 168kts
02-Mar-18 19:42 34.270565 -114.082389 78 9507ft 168kts
02-Mar-18 19:43 34.285029 -114.028608 76 9509ft 168kts
02-Mar-18 19:44 34.299683 -113.974556 74 9510ft 169kts
02-Mar-18 19:45 34.315271 -113.921056 76 9512ft 168kts
02-Mar-18 19:46 34.329872 -113.867259 78 9501ft 168kts
02-Mar-18 19:47 34.344231 -113.813175 76 9503ft 168kts
02-Mar-18 19:48 34.359536 -113.760434 75 9505ft 169kts
02-Mar-18 19:49 34.373866 -113.706421 78 9508ft 168kts
02-Mar-18 19:50 34.388612 -113.652657 74 9512ft 169kts
02-Mar-18 19:51 34.403703 -113.598958 77 9517ft 168kts
02-Mar-18 19:52 34.417541 -113.544639 76 9521ft 169kts
02-Mar-18 19:53 34.433510 -113.491083 75 9524ft 169kts
02-Mar-18 19:54 34.447252 -113.436790 78 9530ft 168kts
02-Mar-18 19:55 34.461604 -113.382649 75 9552ft 169kts
02-Mar-18 19:56 34.477179 -113.328576 79 9557ft 171kts
02-Mar-18 19:57 34.491872 -113.273260 77 9559ft 172kts
02-Mar-18 19:58 34.506796 -113.218146 76 9561ft 172kts
02-Mar-18 19:59 34.521122 -113.162937 76 9566ft 172kts
02-Mar-18 20:00 34.536214 -113.107745 77 9569ft 172kts
02-Mar-18 20:01 34.551508 -113.052842 77 9573ft 171kts
02-Mar-18 20:02 34.565513 -112.997697 76 9577ft 170kts
02-Mar-18 20:03 34.579844 -112.942521 74 9578ft 172kts
02-Mar-18 20:04 34.595671 -112.887937 76 9580ft 171kts
02-Mar-18 20:05 34.609379 -112.832606 78 9582ft 171kts
02-Mar-18 20:06 34.624078 -112.777815 76 9587ft 170kts
02-Mar-18 20:07 34.638549 -112.723224 78 9610ft 170kts
02-Mar-18 20:08 34.653804 -112.668451 75 9615ft 171kts
02-Mar-18 20:09 34.667427 -112.613312 77 9620ft 170kts
02-Mar-18 20:10 34.680773 -112.561434 73 9622ft 171kts
02-Mar-18 20:11 34.689849 -112.530131 76 9620ft 170kts
02-Mar-18 20:12 34.704002 -112.475213 79 9622ft 170kts
02-Mar-18 20:13 34.715512 -112.419401 84 9624ft 169kts
02-Mar-18 20:14 34.724236 -112.369855 81 9623ft 169kts
02-Mar-18 20:15 34.724236 -112.369855 81 9623ft 169kts
02-Mar-18 20:16 34.731263 -112.332503 82 9620ft 169kts
02-Mar-18 20:17 34.741606 -112.273636 82 8941ft 185kts
02-Mar-18 20:18 34.748694 -112.212458 87 8230ft 179kts
02-Mar-18 20:19 34.751277 -112.158653 87 8489ft 153kts
02-Mar-18 20:20 34.754214 -112.099543 87 7480ft 188kts
02-Mar-18 20:21 34.759346 -112.040915 87 7497ft 168kts
02-Mar-18 20:22 34.764690 -111.993157 80 7496ft 168kts
02-Mar-18 20:23 34.772735 -111.943811 82 7493ft 167kts
02-Mar-18 20:24 34.781811 -111.888212 81 7494ft 167kts
02-Mar-18 20:25 34.796273 -111.832560 57 6925ft 184kts
02-Mar-18 20:26 34.830979 -111.789604 43 5871ft 156kts
02-Mar-18 20:27 34.857048 -111.762736 40 5344ft 104kts
02-Mar-18 20:28 34.857355 -111.777596 224 4944ft 74kts
02-Mar-18 20:29 34.847891 -111.789349 253 4778ft 5kts
02-Mar-18 20:30 34.849164 -111.789716 357 4778ft 5kts
02-Mar-18 20:31 34.849264 -111.789775 313 4778ft 0kts
02-Mar-18 20:32 34.849264 -111.789775 313 4778ft 0kts
02-Mar-18 20:33 34.849264 -111.789775 313 4778ft 0kts
02-Mar-18 20:34 34.849264 -111.789775 313 4778ft 0kts
02-Mar-18 20:35 34.849264 -111.789775 313 4778ft 0kts
02-Mar-18 20:36 34.849264 -111.789775 313 4778ft 0kts
02-Mar-18 20:37 34.849264 -111.789775 313 4778ft 0kts

Navigation Log

Ident Type
Flight plan parsing failed, navigation log unavailable